sensor_id;sensor_type;location;lat;lon;timestamp;pressure;altitude;pressure_sealevel;temperature;humidity
76858;BME280;65830;0.000;0.000;2023-05-29T00:01:07;99455.88;;;16.64;79.81
76858;BME280;65830;0.000;0.000;2023-05-29T00:03:34;99458.41;;;16.65;79.69
76858;BME280;65830;0.000;0.000;2023-05-29T00:06:01;99447.03;;;16.63;79.51
76858;BME280;65830;0.000;0.000;2023-05-29T00:08:27;99451.00;;;16.67;79.57
76858;BME280;65830;0.000;0.000;2023-05-29T00:10:53;99455.72;;;16.65;79.27
76858;BME280;65830;0.000;0.000;2023-05-29T00:13:18;99455.97;;;16.71;79.11
76858;BME280;65830;0.000;0.000;2023-05-29T00:15:44;99453.94;;;16.73;79.20
76858;BME280;65830;0.000;0.000;2023-05-29T00:18:09;99458.66;;;16.71;79.08
76858;BME280;65830;0.000;0.000;2023-05-29T00:20:35;99455.88;;;16.64;79.39
76858;BME280;65830;0.000;0.000;2023-05-29T00:23:01;99455.34;;;16.54;79.37
76858;BME280;65830;0.000;0.000;2023-05-29T00:25:27;99456.97;;;16.55;79.60
76858;BME280;65830;0.000;0.000;2023-05-29T00:27:53;99454.78;;;16.58;79.68
76858;BME280;65830;0.000;0.000;2023-05-29T00:30:18;99453.47;;;16.54;79.65
76858;BME280;65830;0.000;0.000;2023-05-29T00:32:44;99444.44;;;16.55;79.79
76858;BME280;65830;0.000;0.000;2023-05-29T00:35:11;99448.03;;;16.62;79.56
76858;BME280;65830;0.000;0.000;2023-05-29T00:37:36;99441.38;;;16.58;79.77
76858;BME280;65830;0.000;0.000;2023-05-29T00:40:02;99440.09;;;16.54;79.92
76858;BME280;65830;0.000;0.000;2023-05-29T00:42:28;99447.94;;;16.56;80.21
76858;BME280;65830;0.000;0.000;2023-05-29T00:44:54;99442.59;;;16.56;80.39
76858;BME280;65830;0.000;0.000;2023-05-29T00:47:19;99445.09;;;16.57;80.36
76858;BME280;65830;0.000;0.000;2023-05-29T00:49:45;99435.84;;;16.60;80.51
76858;BME280;65830;0.000;0.000;2023-05-29T00:52:11;99434.94;;;16.67;80.46
76858;BME280;65830;0.000;0.000;2023-05-29T00:54:37;99433.56;;;16.72;80.13
76858;BME280;65830;0.000;0.000;2023-05-29T00:57:03;99434.53;;;16.71;80.28
76858;BME280;65830;0.000;0.000;2023-05-29T00:59:30;99437.22;;;16.71;80.16
76858;BME280;65830;0.000;0.000;2023-05-29T01:01:57;99438.63;;;16.66;80.32
76858;BME280;65830;0.000;0.000;2023-05-29T01:04:24;99438.25;;;16.70;80.31
76858;BME280;65830;0.000;0.000;2023-05-29T01:06:50;99433.91;;;16.68;79.99
76858;BME280;65830;0.000;0.000;2023-05-29T01:09:17;99436.59;;;16.68;79.69
76858;BME280;65830;0.000;0.000;2023-05-29T01:17:00;99436.97;;;16.65;79.25
76858;BME280;65830;0.000;0.000;2023-05-29T01:25:18;99427.81;;;16.60;79.24
76858;BME280;65830;0.000;0.000;2023-05-29T01:27:47;99427.44;;;16.63;78.43
76858;BME280;65830;0.000;0.000;2023-05-29T01:30:15;99428.72;;;16.52;78.41
76858;BME280;65830;0.000;0.000;2023-05-29T01:32:41;99422.38;;;16.53;78.35
76858;BME280;65830;0.000;0.000;2023-05-29T01:35:07;99415.72;;;16.49;77.70
76858;BME280;65830;0.000;0.000;2023-05-29T01:37:33;99419.22;;;16.50;77.69
76858;BME280;65830;0.000;0.000;2023-05-29T01:39:58;99426.44;;;16.49;77.91
76858;BME280;65830;0.000;0.000;2023-05-29T01:42:25;99421.06;;;16.49;77.76
76858;BME280;65830;0.000;0.000;2023-05-29T01:44:51;99426.78;;;16.46;78.26
76858;BME280;65830;0.000;0.000;2023-05-29T01:47:16;99432.97;;;16.46;78.31
76858;BME280;65830;0.000;0.000;2023-05-29T01:49:42;99426.59;;;16.47;78.41
76858;BME280;65830;0.000;0.000;2023-05-29T01:52:09;99428.06;;;16.50;78.16
76858;BME280;65830;0.000;0.000;2023-05-29T01:54:34;99419.41;;;16.48;78.17
76858;BME280;65830;0.000;0.000;2023-05-29T01:57:00;99426.44;;;16.49;77.92
76858;BME280;65830;0.000;0.000;2023-05-29T01:59:27;99427.44;;;16.48;78.17
76858;BME280;65830;0.000;0.000;2023-05-29T02:01:53;99435.28;;;16.50;78.16
76858;BME280;65830;0.000;0.000;2023-05-29T02:04:19;99438.44;;;16.53;78.41
76858;BME280;65830;0.000;0.000;2023-05-29T02:06:44;99432.69;;;16.56;77.51
76858;BME280;65830;0.000;0.000;2023-05-29T02:09:10;99442.19;;;16.59;77.60
76858;BME280;65830;0.000;0.000;2023-05-29T02:11:36;99445.25;;;16.56;77.27
76858;BME280;65830;0.000;0.000;2023-05-29T02:14:01;99437.59;;;16.53;77.26
76858;BME280;65830;0.000;0.000;2023-05-29T02:16:29;99440.47;;;16.51;77.30
76858;BME280;65830;0.000;0.000;2023-05-29T02:18:55;99434.63;;;16.47;77.38
76858;BME280;65830;0.000;0.000;2023-05-29T02:21:20;99431.97;;;16.47;77.13
76858;BME280;65830;0.000;0.000;2023-05-29T02:23:46;99432.78;;;16.48;77.21
76858;BME280;65830;0.000;0.000;2023-05-29T02:26:12;99437.13;;;16.49;77.36
76858;BME280;65830;0.000;0.000;2023-05-29T02:28:38;99433.34;;;16.43;77.32
76858;BME280;65830;0.000;0.000;2023-05-29T02:31:04;99435.16;;;16.43;77.33
76858;BME280;65830;0.000;0.000;2023-05-29T02:33:30;99443.09;;;16.36;77.79
76858;BME280;65830;0.000;0.000;2023-05-29T02:35:56;99433.50;;;16.42;77.74
76858;BME280;65830;0.000;0.000;2023-05-29T02:38:23;99440.34;;;16.44;77.49
76858;BME280;65830;0.000;0.000;2023-05-29T02:40:48;99439.13;;;16.47;77.67
76858;BME280;65830;0.000;0.000;2023-05-29T02:43:14;99437.59;;;16.53;77.47
76858;BME280;65830;0.000;0.000;2023-05-29T02:45:39;99447.84;;;16.49;77.02
76858;BME280;65830;0.000;0.000;2023-05-29T02:48:05;99439.44;;;16.37;77.55
76858;BME280;65830;0.000;0.000;2023-05-29T02:50:31;99438.22;;;16.40;77.90
76858;BME280;65830;0.000;0.000;2023-05-29T02:52:56;99443.50;;;16.48;78.06
76858;BME280;65830;0.000;0.000;2023-05-29T02:55:22;99437.13;;;16.49;77.69
76858;BME280;65830;0.000;0.000;2023-05-29T02:57:48;99445.81;;;16.51;77.51
76858;BME280;65830;0.000;0.000;2023-05-29T03:00:16;99443.31;;;16.50;77.25
76858;BME280;65830;0.000;0.000;2023-05-29T03:02:43;99452.34;;;16.48;77.56
76858;BME280;65830;0.000;0.000;2023-05-29T03:05:10;99448.69;;;16.50;77.11
76858;BME280;65830;0.000;0.000;2023-05-29T03:07:36;99456.34;;;16.53;77.66
76858;BME280;65830;0.000;0.000;2023-05-29T03:10:01;99456.53;;;16.51;77.78
76858;BME280;65830;0.000;0.000;2023-05-29T03:12:29;99454.13;;;16.56;77.99
76858;BME280;65830;0.000;0.000;2023-05-29T03:14:55;99453.66;;;16.53;78.06
76858;BME280;65830;0.000;0.000;2023-05-29T03:17:21;99463.72;;;16.51;78.52
76858;BME280;65830;0.000;0.000;2023-05-29T03:19:47;99449.84;;;16.47;78.42
76858;BME280;65830;0.000;0.000;2023-05-29T03:22:12;99458.56;;;16.49;78.22
76858;BME280;65830;0.000;0.000;2023-05-29T03:24:39;99464.19;;;16.54;78.20
76858;BME280;65830;0.000;0.000;2023-05-29T03:27:05;99461.50;;;16.54;77.92
76858;BME280;65830;0.000;0.000;2023-05-29T03:29:31;99471.88;;;16.57;78.17
76858;BME280;65830;0.000;0.000;2023-05-29T03:31:57;99469.19;;;16.57;78.18
76858;BME280;65830;0.000;0.000;2023-05-29T03:34:27;99465.66;;;16.57;78.44
76858;BME280;65830;0.000;0.000;2023-05-29T03:36:57;99469.19;;;16.57;78.68
76858;BME280;65830;0.000;0.000;2023-05-29T03:39:24;99466.03;;;16.54;78.76
76858;BME280;65830;0.000;0.000;2023-05-29T03:41:49;99465.41;;;16.52;78.47
76858;BME280;65830;0.000;0.000;2023-05-29T03:44:15;99477.84;;;16.44;79.07
76858;BME280;65830;0.000;0.000;2023-05-29T03:46:41;99476.63;;;16.47;79.38
76858;BME280;65830;0.000;0.000;2023-05-29T03:49:06;99474.72;;;16.56;78.98
76858;BME280;65830;0.000;0.000;2023-05-29T03:51:33;99472.41;;;16.53;79.14
76858;BME280;65830;0.000;0.000;2023-05-29T03:54:00;99473.53;;;16.58;78.60
76858;BME280;65830;0.000;0.000;2023-05-29T03:56:26;99472.22;;;16.54;78.66
76858;BME280;65830;0.000;0.000;2023-05-29T03:58:52;99477.22;;;16.57;78.35
76858;BME280;65830;0.000;0.000;2023-05-29T04:01:18;99468.81;;;16.60;78.41
76858;BME280;65830;0.000;0.000;2023-05-29T04:03:44;99479.19;;;16.63;77.63
76858;BME280;65830;0.000;0.000;2023-05-29T04:06:10;99485.53;;;16.62;76.28
76858;BME280;65830;0.000;0.000;2023-05-29T04:08:36;99489.03;;;16.48;75.94
76858;BME280;65830;0.000;0.000;2023-05-29T04:11:02;99489.19;;;16.46;76.03
76858;BME280;65830;0.000;0.000;2023-05-29T04:13:29;99489.03;;;16.48;75.66
76858;BME280;65830;0.000;0.000;2023-05-29T04:15:54;99495.38;;;16.47;75.43
76858;BME280;65830;0.000;0.000;2023-05-29T04:18:20;99493.91;;;16.44;75.78
76858;BME280;65830;0.000;0.000;2023-05-29T04:20:47;99492.91;;;16.45;75.82
76858;BME280;65830;0.000;0.000;2023-05-29T04:23:13;99494.56;;;16.46;75.76
76858;BME280;65830;0.000;0.000;2023-05-29T04:25:38;99495.09;;;16.42;76.21
76858;BME280;65830;0.000;0.000;2023-05-29T04:28:04;99503.31;;;16.40;76.35
76858;BME280;65830;0.000;0.000;2023-05-29T04:30:31;99513.19;;;16.40;76.46
76858;BME280;65830;0.000;0.000;2023-05-29T04:33:00;99511.81;;;16.44;76.58
76858;BME280;65830;0.000;0.000;2023-05-29T04:35:26;99512.78;;;16.51;76.36
76858;BME280;65830;0.000;0.000;2023-05-29T04:38:00;99512.06;;;16.57;76.49
76858;BME280;65830;0.000;0.000;2023-05-29T04:40:30;99515.94;;;16.70;76.23
76858;BME280;65830;0.000;0.000;2023-05-29T04:42:57;99517.41;;;16.72;76.14
76858;BME280;65830;0.000;0.000;2023-05-29T04:45:29;99516.22;;;16.75;75.42
76858;BME280;65830;0.000;0.000;2023-05-29T04:47:55;99517.69;;;16.62;75.57
76858;BME280;65830;0.000;0.000;2023-05-29T04:50:21;99519.22;;;16.42;75.92
76858;BME280;65830;0.000;0.000;2023-05-29T04:52:48;99522.22;;;16.39;76.55
76858;BME280;65830;0.000;0.000;2023-05-29T04:55:14;99515.88;;;16.40;76.86
76858;BME280;65830;0.000;0.000;2023-05-29T04:57:41;99523.19;;;16.46;76.99
76858;BME280;65830;0.000;0.000;2023-05-29T05:00:08;99529.13;;;16.56;77.08
76858;BME280;65830;0.000;0.000;2023-05-29T05:02:37;99533.47;;;16.57;76.82
76858;BME280;65830;0.000;0.000;2023-05-29T05:05:03;99535.50;;;16.55;76.97
76858;BME280;65830;0.000;0.000;2023-05-29T05:07:29;99533.81;;;16.54;76.76
76858;BME280;65830;0.000;0.000;2023-05-29T05:09:54;99538.19;;;16.55;76.56
76858;BME280;65830;0.000;0.000;2023-05-29T05:12:24;99530.16;;;16.55;76.27
76858;BME280;65830;0.000;0.000;2023-05-29T05:14:50;99531.69;;;16.50;76.04
76858;BME280;65830;0.000;0.000;2023-05-29T05:17:15;99533.56;;;16.49;75.69
76858;BME280;65830;0.000;0.000;2023-05-29T05:19:42;99536.88;;;16.51;75.20
76858;BME280;65830;0.000;0.000;2023-05-29T05:22:07;99541.84;;;16.54;75.01
76858;BME280;65830;0.000;0.000;2023-05-29T05:24:33;99547.69;;;16.58;74.96
76858;BME280;65830;0.000;0.000;2023-05-29T05:27:03;99545.19;;;16.56;74.71
76858;BME280;65830;0.000;0.000;2023-05-29T05:29:29;99540.84;;;16.55;74.35
76858;BME280;65830;0.000;0.000;2023-05-29T05:31:57;99543.47;;;16.63;74.36
76858;BME280;65830;0.000;0.000;2023-05-29T05:34:23;99538.84;;;16.72;74.48
76858;BME280;65830;0.000;0.000;2023-05-29T05:36:48;99542.66;;;16.78;73.95
76858;BME280;65830;0.000;0.000;2023-05-29T05:39:14;99554.72;;;16.82;73.41
76858;BME280;65830;0.000;0.000;2023-05-29T05:41:43;99557.78;;;16.94;73.47
76858;BME280;65830;0.000;0.000;2023-05-29T05:44:11;99553.72;;;16.98;73.25
76858;BME280;65830;0.000;0.000;2023-05-29T05:46:41;99563.69;;;17.04;73.33
76858;BME280;65830;0.000;0.000;2023-05-29T05:49:07;99566.19;;;17.05;73.01
76858;BME280;65830;0.000;0.000;2023-05-29T05:55:01;99561.56;;;16.99;73.02
76858;BME280;65830;0.000;0.000;2023-05-29T05:57:27;99562.66;;;16.90;73.00
76858;BME280;65830;0.000;0.000;2023-05-29T05:59:52;99556.94;;;16.93;73.45
76858;BME280;65830;0.000;0.000;2023-05-29T06:02:18;99567.41;;;17.03;73.80
76858;BME280;65830;0.000;0.000;2023-05-29T06:04:44;99565.47;;;17.12;73.38
76858;BME280;65830;0.000;0.000;2023-05-29T06:07:09;99558.28;;;17.27;73.40
76858;BME280;65830;0.000;0.000;2023-05-29T06:09:36;99564.28;;;17.29;71.79
76858;BME280;65830;0.000;0.000;2023-05-29T06:12:02;99556.59;;;17.41;72.37
76858;BME280;65830;0.000;0.000;2023-05-29T06:14:28;99558.25;;;17.42;71.58
76858;BME280;65830;0.000;0.000;2023-05-29T06:16:54;99557.25;;;17.43;70.95
76858;BME280;65830;0.000;0.000;2023-05-29T06:19:20;99553.00;;;17.49;71.10
76858;BME280;65830;0.000;0.000;2023-05-29T06:21:59;99555.75;;;17.55;70.81
76858;BME280;65830;0.000;0.000;2023-05-29T06:24:26;99553.06;;;17.70;70.61
76858;BME280;65830;0.000;0.000;2023-05-29T06:26:53;99559.25;;;17.71;69.86
76858;BME280;65830;0.000;0.000;2023-05-29T06:29:19;99563.69;;;17.78;70.76
76858;BME280;65830;0.000;0.000;2023-05-29T06:31:45;99558.59;;;17.83;69.79
76858;BME280;65830;0.000;0.000;2023-05-29T06:34:11;99559.81;;;17.96;69.72
76858;BME280;65830;0.000;0.000;2023-05-29T06:36:37;99564.72;;;17.92;69.62
76858;BME280;65830;0.000;0.000;2023-05-29T06:39:04;99567.84;;;17.96;69.60
76858;BME280;65830;0.000;0.000;2023-05-29T06:41:30;99568.50;;;17.98;69.71
76858;BME280;65830;0.000;0.000;2023-05-29T06:43:56;99566.06;;;18.03;69.59
76858;BME280;65830;0.000;0.000;2023-05-29T06:46:21;99563.88;;;18.13;69.50
76858;BME280;65830;0.000;0.000;2023-05-29T06:48:47;99565.56;;;18.14;68.72
76858;BME280;65830;0.000;0.000;2023-05-29T06:51:13;99561.06;;;18.21;69.08
76858;BME280;65830;0.000;0.000;2023-05-29T06:53:53;99570.03;;;18.29;69.40
76858;BME280;65830;0.000;0.000;2023-05-29T06:56:20;99567.41;;;18.35;69.28
76858;BME280;65830;0.000;0.000;2023-05-29T06:58:46;99567.94;;;18.45;69.24
76858;BME280;65830;0.000;0.000;2023-05-29T07:01:13;99563.13;;;18.41;67.88
76858;BME280;65830;0.000;0.000;2023-05-29T07:03:51;99559.94;;;18.52;68.47
76858;BME280;65830;0.000;0.000;2023-05-29T07:06:16;99570.09;;;18.57;67.67
76858;BME280;65830;0.000;0.000;2023-05-29T07:08:42;99563.38;;;18.68;67.60
76858;BME280;65830;0.000;0.000;2023-05-29T07:11:07;99568.56;;;18.69;66.69
76858;BME280;65830;0.000;0.000;2023-05-29T07:13:33;99567.53;;;18.70;66.02
76858;BME280;65830;0.000;0.000;2023-05-29T07:15:58;99570.19;;;18.85;65.70
76858;BME280;65830;0.000;0.000;2023-05-29T07:18:30;99568.88;;;18.81;65.37
76858;BME280;65830;0.000;0.000;2023-05-29T07:20:57;99573.69;;;18.85;64.57
76858;BME280;65830;0.000;0.000;2023-05-29T07:23:23;99574.94;;;18.83;64.23
76858;BME280;65830;0.000;0.000;2023-05-29T07:25:49;99573.88;;;18.84;64.59
76858;BME280;65830;0.000;0.000;2023-05-29T07:28:15;99578.25;;;18.85;65.13
76858;BME280;65830;0.000;0.000;2023-05-29T07:30:41;99574.97;;;18.90;65.47
76858;BME280;65830;0.000;0.000;2023-05-29T07:33:07;99576.69;;;18.97;65.09
76858;BME280;65830;0.000;0.000;2023-05-29T07:35:33;99575.25;;;19.01;65.32
76858;BME280;65830;0.000;0.000;2023-05-29T07:37:59;99579.44;;;19.11;64.83
76858;BME280;65830;0.000;0.000;2023-05-29T07:40:25;99578.47;;;19.18;64.74
76858;BME280;65830;0.000;0.000;2023-05-29T07:43:12;99574.56;;;19.21;64.60
76858;BME280;65830;0.000;0.000;2023-05-29T07:45:51;99578.75;;;19.30;64.54
76858;BME280;65830;0.000;0.000;2023-05-29T07:48:17;99576.94;;;19.37;63.99
76858;BME280;65830;0.000;0.000;2023-05-29T07:50:43;99572.44;;;19.44;63.43
76858;BME280;65830;0.000;0.000;2023-05-29T07:53:08;99586.03;;;19.36;64.05
76858;BME280;65830;0.000;0.000;2023-05-29T07:55:36;99578.38;;;19.33;64.05
76858;BME280;65830;0.000;0.000;2023-05-29T07:58:02;99585.91;;;19.44;64.08
76858;BME280;65830;0.000;0.000;2023-05-29T08:00:28;99583.03;;;19.53;63.30
76858;BME280;65830;0.000;0.000;2023-05-29T08:02:54;99584.94;;;19.59;63.88
76858;BME280;65830;0.000;0.000;2023-05-29T08:05:46;99583.06;;;19.66;64.14
76858;BME280;65830;0.000;0.000;2023-05-29T08:08:12;99582.69;;;19.69;64.23
76858;BME280;65830;0.000;0.000;2023-05-29T08:10:39;99570.97;;;19.77;63.94
76858;BME280;65830;0.000;0.000;2023-05-29T08:13:05;99572.66;;;19.84;64.75
76858;BME280;65830;0.000;0.000;2023-05-29T08:15:33;99579.94;;;19.97;64.56
76858;BME280;65830;0.000;0.000;2023-05-29T08:17:58;99577.28;;;20.04;64.88
76858;BME280;65830;0.000;0.000;2023-05-29T08:20:24;99573.78;;;20.17;62.29
76858;BME280;65830;0.000;0.000;2023-05-29T08:22:49;99569.88;;;20.33;62.32
76858;BME280;65830;0.000;0.000;2023-05-29T08:25:15;99573.22;;;20.48;62.18
76858;BME280;65830;0.000;0.000;2023-05-29T08:27:40;99568.66;;;20.55;61.12
76858;BME280;65830;0.000;0.000;2023-05-29T08:30:06;99569.50;;;20.56;61.28
76858;BME280;65830;0.000;0.000;2023-05-29T08:32:31;99572.84;;;20.71;60.48
76858;BME280;65830;0.000;0.000;2023-05-29T08:34:57;99569.53;;;20.62;60.04
76858;BME280;65830;0.000;0.000;2023-05-29T08:37:23;99559.78;;;20.61;60.51
76858;BME280;65830;0.000;0.000;2023-05-29T08:39:49;99551.91;;;20.73;58.85
76858;BME280;65830;0.000;0.000;2023-05-29T08:42:18;99561.88;;;20.79;57.65
76858;BME280;65830;0.000;0.000;2023-05-29T08:44:46;99556.25;;;20.81;57.30
76858;BME280;65830;0.000;0.000;2023-05-29T08:47:12;99554.78;;;20.85;58.63
76858;BME280;65830;0.000;0.000;2023-05-29T08:49:43;99550.00;;;21.00;58.28
76858;BME280;65830;0.000;0.000;2023-05-29T08:52:19;99537.53;;;21.13;57.46
76858;BME280;65830;0.000;0.000;2023-05-29T08:54:44;99544.34;;;21.29;56.69
76858;BME280;65830;0.000;0.000;2023-05-29T08:57:11;99545.81;;;21.25;55.98
76858;BME280;65830;0.000;0.000;2023-05-29T08:59:37;99539.78;;;21.29;54.62
76858;BME280;65830;0.000;0.000;2023-05-29T09:02:04;99536.03;;;21.37;55.17
76858;BME280;65830;0.000;0.000;2023-05-29T09:04:30;99539.56;;;21.37;56.54
76858;BME280;65830;0.000;0.000;2023-05-29T09:06:57;99545.78;;;21.45;57.02
76858;BME280;65830;0.000;0.000;2023-05-29T09:09:24;99547.25;;;21.47;56.37
76858;BME280;65830;0.000;0.000;2023-05-29T09:11:51;99543.50;;;21.48;55.91
76858;BME280;65830;0.000;0.000;2023-05-29T09:16:59;99543.69;;;21.40;55.58
76858;BME280;65830;0.000;0.000;2023-05-29T09:19:25;99545.78;;;21.45;55.32
76858;BME280;65830;0.000;0.000;2023-05-29T09:21:51;99543.28;;;21.50;55.09
76858;BME280;65830;0.000;0.000;2023-05-29T09:24:16;99543.69;;;21.53;55.12
76858;BME280;65830;0.000;0.000;2023-05-29T09:26:48;99540.44;;;21.18;55.04
76858;BME280;65830;0.000;0.000;2023-05-29T09:29:15;99539.59;;;21.24;55.63
76858;BME280;65830;0.000;0.000;2023-05-29T09:31:47;99552.22;;;21.30;54.82
76858;BME280;65830;0.000;0.000;2023-05-29T09:34:12;99548.31;;;21.19;54.96
76858;BME280;65830;0.000;0.000;2023-05-29T09:36:38;99548.31;;;21.26;54.53
76858;BME280;65830;0.000;0.000;2023-05-29T09:39:03;99543.31;;;21.30;54.67
76858;BME280;65830;0.000;0.000;2023-05-29T09:41:29;99543.69;;;21.40;55.41
76858;BME280;65830;0.000;0.000;2023-05-29T09:43:56;99549.53;;;21.44;55.67
76858;BME280;65830;0.000;0.000;2023-05-29T09:46:22;99546.19;;;21.41;54.40
76858;BME280;65830;0.000;0.000;2023-05-29T09:48:48;99543.91;;;21.38;54.00
76858;BME280;65830;0.000;0.000;2023-05-29T09:51:22;99539.72;;;21.42;53.38
76858;BME280;65830;0.000;0.000;2023-05-29T09:53:48;99535.41;;;21.41;52.58
76858;BME280;65830;0.000;0.000;2023-05-29T09:56:16;99530.81;;;21.55;52.73
76858;BME280;65830;0.000;0.000;2023-05-29T09:58:43;99525.59;;;21.60;54.14
76858;BME280;65830;0.000;0.000;2023-05-29T10:01:13;99523.03;;;21.72;53.16
76858;BME280;65830;0.000;0.000;2023-05-29T10:03:41;99515.59;;;21.68;52.30
76858;BME280;65830;0.000;0.000;2023-05-29T10:06:08;99517.03;;;21.70;52.28
76858;BME280;65830;0.000;0.000;2023-05-29T10:08:37;99513.50;;;21.76;53.54
76858;BME280;65830;0.000;0.000;2023-05-29T10:11:04;99514.09;;;21.78;52.25
76858;BME280;65830;0.000;0.000;2023-05-29T10:13:35;99505.13;;;21.85;52.78
76858;BME280;65830;0.000;0.000;2023-05-29T10:16:03;99513.78;;;21.93;51.73
76858;BME280;65830;0.000;0.000;2023-05-29T10:18:32;99508.84;;;21.84;51.76
76858;BME280;65830;0.000;0.000;2023-05-29T10:21:00;99506.56;;;21.87;51.21
76858;BME280;65830;0.000;0.000;2023-05-29T10:23:26;99503.56;;;22.02;52.30
76858;BME280;65830;0.000;0.000;2023-05-29T10:25:57;99501.84;;;22.08;50.57
76858;BME280;65830;0.000;0.000;2023-05-29T10:28:27;99498.69;;;22.17;51.35
76858;BME280;65830;0.000;0.000;2023-05-29T10:30:53;99498.44;;;22.26;50.87
76858;BME280;65830;0.000;0.000;2023-05-29T10:35:57;99485.34;;;22.23;50.42
76858;BME280;65830;0.000;0.000;2023-05-29T10:38:26;99479.91;;;22.29;49.88
76858;BME280;65830;0.000;0.000;2023-05-29T10:40:52;99485.09;;;22.31;50.20
76858;BME280;65830;0.000;0.000;2023-05-29T10:43:31;99483.63;;;22.35;49.71
76858;BME280;65830;0.000;0.000;2023-05-29T10:46:00;99485.00;;;22.44;50.29
76858;BME280;65830;0.000;0.000;2023-05-29T10:50:54;99479.75;;;22.49;49.68
76858;BME280;65830;0.000;0.000;2023-05-29T10:53:26;99486.94;;;22.62;49.98
76858;BME280;65830;0.000;0.000;2023-05-29T10:55:56;99485.22;;;22.68;48.93
76858;BME280;65830;0.000;0.000;2023-05-29T10:58:22;99487.31;;;22.66;49.85
76858;BME280;65830;0.000;0.000;2023-05-29T11:00:49;99480.41;;;22.70;50.80
76858;BME280;65830;0.000;0.000;2023-05-29T11:03:15;99483.13;;;22.88;50.78
76858;BME280;65830;0.000;0.000;2023-05-29T11:11:12;99477.47;;;23.33;49.03
76858;BME280;65830;0.000;0.000;2023-05-29T11:13:38;99477.28;;;23.47;49.96
76858;BME280;65830;0.000;0.000;2023-05-29T11:18:49;99476.81;;;23.87;46.89
76858;BME280;65830;0.000;0.000;2023-05-29T11:21:21;99474.94;;;23.69;47.17
76858;BME280;65830;0.000;0.000;2023-05-29T11:23:50;99471.38;;;23.68;46.79
76858;BME280;65830;0.000;0.000;2023-05-29T11:26:15;99461.84;;;23.66;47.28
76858;BME280;65830;0.000;0.000;2023-05-29T11:28:42;99462.34;;;23.74;49.31
76858;BME280;65830;0.000;0.000;2023-05-29T11:31:08;99456.78;;;23.88;50.43
76858;BME280;65830;0.000;0.000;2023-05-29T11:33:33;99450.41;;;23.94;48.75
76858;BME280;65830;0.000;0.000;2023-05-29T11:36:01;99454.09;;;23.99;47.52
76858;BME280;65830;0.000;0.000;2023-05-29T11:38:27;99456.91;;;23.74;46.89
76858;BME280;65830;0.000;0.000;2023-05-29T11:40:55;99452.09;;;23.65;47.61
76858;BME280;65830;0.000;0.000;2023-05-29T11:43:22;99460.88;;;23.60;47.71
76858;BME280;65830;0.000;0.000;2023-05-29T11:45:47;99453.66;;;23.54;47.80
76858;BME280;65830;0.000;0.000;2023-05-29T11:48:13;99445.44;;;23.60;47.85
76858;BME280;65830;0.000;0.000;2023-05-29T11:50:38;99445.69;;;23.59;47.95
76858;BME280;65830;0.000;0.000;2023-05-29T11:53:05;99442.97;;;23.77;47.66
76858;BME280;65830;0.000;0.000;2023-05-29T11:55:31;99442.50;;;23.81;48.49
76858;BME280;65830;0.000;0.000;2023-05-29T11:57:57;99431.69;;;23.81;47.96
76858;BME280;65830;0.000;0.000;2023-05-29T12:00:24;99428.38;;;23.90;47.50
76858;BME280;65830;0.000;0.000;2023-05-29T12:02:52;99415.13;;;24.01;48.20
76858;BME280;65830;0.000;0.000;2023-05-29T12:05:18;99420.44;;;24.19;47.56
76858;BME280;65830;0.000;0.000;2023-05-29T12:08:01;99416.94;;;23.88;46.55
76858;BME280;65830;0.000;0.000;2023-05-29T12:10:29;99420.75;;;23.99;46.24
76858;BME280;65830;0.000;0.000;2023-05-29T12:12:58;99412.16;;;24.02;46.05
76858;BME280;65830;0.000;0.000;2023-05-29T12:15:28;99414.75;;;24.09;46.25
76858;BME280;65830;0.000;0.000;2023-05-29T12:17:54;99412.31;;;24.19;45.24
76858;BME280;65830;0.000;0.000;2023-05-29T12:20:22;99415.13;;;24.36;45.28
76858;BME280;65830;0.000;0.000;2023-05-29T12:22:48;99418.38;;;24.56;45.48
76858;BME280;65830;0.000;0.000;2023-05-29T12:25:14;99423.78;;;24.80;46.83
76858;BME280;65830;0.000;0.000;2023-05-29T12:27:42;99425.41;;;24.81;43.99
76858;BME280;65830;0.000;0.000;2023-05-29T12:30:11;99421.31;;;24.67;44.42
76858;BME280;65830;0.000;0.000;2023-05-29T12:32:40;99417.88;;;24.71;44.22
76858;BME280;65830;0.000;0.000;2023-05-29T12:35:13;99420.94;;;24.75;45.01
76858;BME280;65830;0.000;0.000;2023-05-29T12:37:43;99410.09;;;24.63;44.39
76858;BME280;65830;0.000;0.000;2023-05-29T12:40:11;99409.84;;;24.65;47.35
76858;BME280;65830;0.000;0.000;2023-05-29T12:42:39;99406.69;;;24.68;48.23
76858;BME280;65830;0.000;0.000;2023-05-29T12:45:06;99407.16;;;24.65;47.79
76858;BME280;65830;0.000;0.000;2023-05-29T12:47:32;99404.22;;;24.66;46.44
76858;BME280;65830;0.000;0.000;2023-05-29T12:49:57;99414.34;;;24.71;48.25
76858;BME280;65830;0.000;0.000;2023-05-29T12:52:23;99400.78;;;24.71;47.22
76858;BME280;65830;0.000;0.000;2023-05-29T12:54:49;99400.06;;;24.64;45.79
76858;BME280;65830;0.000;0.000;2023-05-29T12:57:14;99393.94;;;24.56;46.34
76858;BME280;65830;0.000;0.000;2023-05-29T12:59:40;99394.91;;;24.50;47.00
76858;BME280;65830;0.000;0.000;2023-05-29T13:02:14;99405.13;;;24.48;48.19
76858;BME280;65830;0.000;0.000;2023-05-29T13:04:41;99396.75;;;24.38;47.50
76858;BME280;65830;0.000;0.000;2023-05-29T13:07:06;99397.59;;;24.38;49.15
76858;BME280;65830;0.000;0.000;2023-05-29T13:09:32;99389.44;;;24.38;47.38
76858;BME280;65830;0.000;0.000;2023-05-29T13:11:57;99390.72;;;24.36;45.73
76858;BME280;65830;0.000;0.000;2023-05-29T13:14:23;99398.41;;;24.39;46.92
76858;BME280;65830;0.000;0.000;2023-05-29T13:16:48;99395.81;;;24.44;45.12
76858;BME280;65830;0.000;0.000;2023-05-29T13:19:14;99393.09;;;24.44;44.81
76858;BME280;65830;0.000;0.000;2023-05-29T13:21:39;99391.22;;;24.33;45.10
76858;BME280;65830;0.000;0.000;2023-05-29T13:24:12;99389.41;;;24.03;45.88
76858;BME280;65830;0.000;0.000;2023-05-29T13:26:37;99388.84;;;24.13;46.09
76858;BME280;65830;0.000;0.000;2023-05-29T13:29:02;99390.63;;;24.31;46.07
76858;BME280;65830;0.000;0.000;2023-05-29T13:31:28;99385.44;;;24.41;45.35
76858;BME280;65830;0.000;0.000;2023-05-29T13:33:53;99389.09;;;24.47;45.20
76858;BME280;65830;0.000;0.000;2023-05-29T13:36:19;99380.47;;;24.62;46.70
76858;BME280;65830;0.000;0.000;2023-05-29T13:38:44;99375.38;;;24.89;44.13